South Reno (Wolf Run), Nevada Weather observations

Data are for observation ending at time listed.
 Day   Time    Ave.   Ave.  Ave.  Vector   Max.   Stn.    Total    Solar   Ave.  
  of    of     Air    Rel.  Wind   Wind    Wind   Baro.  Precip.   Rad.    Soil  
Year   Day     Temp.  Hum.  Speed  Dir.    Gust   Pres.                    Temp. 
2019   (PST)    F      %     mph   deg.    mph     mb.     in.     W/m2     F   
------------------------------------------------------------------------------
 166    2:30   60.2    54    3.3   233      5.8  99999.0    0.00       0    70.4
 166    2:40   59.7    56    2.9   232      5.4  99999.0    0.00       0    70.3
 166    2:50   60.3    54    3.8   231      6.3  99999.0    0.00       0    70.2
 166    3:00   60.1    54    3.5   234      6.1  99999.0    0.00       0    70.2
 166    3:10   60.5    52    4.4   234      6.7  99999.0    0.00       0    70.1
 166    3:20   61.2    50    3.4   212      5.5  99999.0    0.00       0    70.0
 166    3:30   61.7    48    4.9   226      7.7  99999.0    0.00       0    69.9
 166    3:40   61.8    47    4.5   226      7.5  99999.0    0.00       0    69.8
 166    3:50   60.5    50    1.8   225      6.1  99999.0    0.00       0    69.7
 166    4:00   58.8    54    0.5   242      4.3  99999.0    0.00       0    69.7
 166    4:10   57.7    55    0.0     0      0.0  99999.0    0.00       0    69.6
 166    4:20   57.2    56    0.5   239      2.4  99999.0    0.00       1    69.5
 166    4:30   56.9    58    1.1   239      3.2  99999.0    0.00       2    69.4
 166    4:40   57.4    55    1.4   238      3.9  99999.0    0.00       5    69.3
 166    4:50   57.5    54    1.5   232      3.8  99999.0    0.00      10    69.2
 166    5:00   57.7    53    1.1   251      2.6  99999.0    0.00      26    69.2
 166    5:10   59.3    51    0.1   249      1.8  99999.0    0.00      49    69.1
 166    5:20   61.5    50    0.0     0      0.0  99999.0    0.00      80    69.0
 166    5:30   63.2    50    0.0     0      0.0  99999.0    0.00     113    68.9
 166    5:40   65.0    48    0.4   337      1.5  99999.0    0.00     143    68.9
 166    5:50   64.3    51    0.8   322      2.4  99999.0    0.00     172    68.8
 166    6:00   66.1    48    0.0    86      1.0  99999.0    0.00     202    68.7
 166    6:10   67.7    48    0.0     0      0.0  99999.0    0.00     233    68.7
 166    6:20   68.4    46    0.0     0      0.0  99999.0    0.00     264    68.6
 166    6:30   68.5    47    0.3   357      1.3  99999.0    0.00     296    68.6
 166    6:40   69.2    46    0.1   348      1.2  99999.0    0.00     329    68.5
 166    6:50   69.5    46    0.7    25      2.1  99999.0    0.00     359    68.4
 166    7:00   68.8    46    1.4     4      2.9  99999.0    0.00     392    68.4
 166    7:10   68.7    46    1.7    41      3.2  99999.0    0.00     425    68.4
 166    7:20   68.8    44    1.4    28      2.9  99999.0    0.00     457    68.3
 166    7:30   69.4    45    1.3   352      3.4  99999.0    0.00     488    68.3
 166    7:40   70.3    41    0.5   346      2.2  99999.0    0.00     520    68.3
 166    7:50   72.4    40    0.5     2      2.0  99999.0    0.00     551    68.3
 166    8:00   72.7    39    0.5   341      2.1  99999.0    0.00     582    68.3
 166    8:10   73.2    38    1.0    12      3.3  99999.0    0.00     612    68.3
 166    8:20   73.7    38    1.1   355      3.2  99999.0    0.00     642    68.3
 166    8:30   73.5    37    1.2   330      3.6  99999.0    0.00     672    68.4
 166    8:40   74.6    37    0.4   326      2.7  99999.0    0.00     700    68.4
 166    8:50   76.2    32    0.8   333      2.7  99999.0    0.00     728    68.5
 166    9:00   75.1    32    0.8   296      2.7  99999.0    0.00     753    68.5
 166    9:10   77.3    32    0.3     2      2.7  99999.0    0.00     776    68.6
 166    9:20   78.5    29    0.6    47      2.8  99999.0    0.00     803    68.7
 166    9:30   78.7    28    1.1    59      3.8  99999.0    0.00     826    68.8
 166    9:40   79.2    29    0.7   348      3.2  99999.0    0.00     848    69.0
 166    9:50   79.6    27    1.4     2      3.1  99999.0    0.00     870    69.1
 166   10:00   79.1    27    3.0    51      6.6  99999.0    0.00     889    69.2
 166   10:10   79.3    28    2.4    95      5.7  99999.0    0.00     906    69.4
 166   10:20   79.5    27    2.1    70      7.5  99999.0    0.00     923    69.6
 166   10:30   80.6    27    4.1    96      7.5  99999.0    0.00     940    69.8
 166   10:40   80.8    27    4.5    97     11.2  99999.0    0.00     953    70.0
 166   10:50   80.5    26    2.9   105      7.7  99999.0    0.00     970    70.2
 166   11:00   82.0    25    2.5   137      6.6  99999.0    0.00     982    70.4
 166   11:10   80.6    23    3.9   192      7.6  99999.0    0.00     992    70.6
 166   11:20   80.7    21    5.3   190      9.9  99999.0    0.00    1009    70.9
 166   11:30   81.3    20    4.3   191      9.1  99999.0    0.00    1009    71.1
 166   11:40   81.3    21    3.9   196      8.8  99999.0    0.00     998    71.4
 166   11:50   82.5    22    5.1   129     12.9  99999.0    0.00    1024    71.6
 166   12:00   81.8    21    6.8   208     13.9  99999.0    0.00    1019    71.9
 166   12:10   81.9    22    5.7   181     10.2  99999.0    0.00     931    72.1
 166   12:20   82.7    21    5.5   192     10.1  99999.0    0.00    1048    72.3
 166   12:30   82.7    21    7.0   146     12.1  99999.0    0.00    1034    72.6
 166   12:40   83.1    21    5.6   167      9.7  99999.0    0.00    1029    72.8
 166   12:50   83.4    21    7.1   169     13.3  99999.0    0.00    1047    73.1
 166   13:00   83.6    20    6.5   189     11.5  99999.0    0.00    1039    73.3
 166   13:10   83.5    16    7.0   196     13.1  99999.0    0.00    1046    73.5
 166   13:20   83.9    15    6.3   205     10.9  99999.0    0.00    1082    73.7
 166   13:30   83.7    16    7.0   212     12.1  99999.0    0.00    1073    73.9
 166   13:40   83.4    17    7.5   220     13.9  99999.0    0.00     967    74.1
 166   13:50   83.1    19    7.8   220     12.0  99999.0    0.00     982    74.3
 166   14:00   83.2    18    7.4   223     13.1  99999.0    0.00     946    74.4
 166   14:10   82.9    18    7.7   232     12.3  99999.0    0.00     911    74.6
 166   14:20   83.1    18    8.0   232     14.2  99999.0    0.00     929    74.8
 166   14:30   83.3    18    6.0   229     10.0  99999.0    0.00     868    74.9
 166   14:40   83.4    17    6.3   212     11.8  99999.0    0.00     850    75.0
 166   14:50   83.5    16    5.4   208      8.7  99999.0    0.00     824    75.1
 166   15:00   84.3    17    3.4   222      7.7  99999.0    0.00     759    75.3
 166   15:10   83.8    16    2.8   218      8.5  99999.0    0.00     755    75.4
 166   15:20   84.2    16    2.8   234      8.3  99999.0    0.00     740    75.5
 166   15:30   84.5    15    1.1    77      3.5  99999.0    0.00     607    75.6
 166   15:40   85.3    16    3.3   198     10.1  99999.0    0.00     643    75.7
 166   15:50   83.8    16    2.8   232      8.3  99999.0    0.00     524    75.8
 166   16:00   83.2    17    4.2   240     10.8  99999.0    0.00     532    75.8
 166   16:10   82.7    17    5.9   233     12.0  99999.0    0.00     501    75.9
 166   16:20   82.0    18    2.8   256      7.8  99999.0    0.00     492    76.0
 166   16:30   81.7    19    3.3   265     10.6  99999.0    0.00     508    76.1
 166   16:40   82.1    19    2.3   264      7.6  99999.0    0.00     463    76.1
 166   16:50   81.8    19    3.1   249      9.4  99999.0    0.00     426    76.2
 166   17:00   80.7    19    3.3   244      9.6  99999.0    0.00     268    76.2
 166   17:10   80.0    20    2.8   254      9.4  99999.0    0.00     290    76.2
 166   17:20   79.9    21    2.9   251      8.8  99999.0    0.00     333    76.3
 166   17:30   79.8    22    1.3   263      6.3  99999.0    0.00     281    76.3
 166   17:40   78.8    22    2.1   255      8.0  99999.0    0.00     247    76.3
 166   17:50   78.2    23    2.0   252      7.6  99999.0    0.00     258    76.2
 166   18:00   78.3    23    1.4   261      6.3  99999.0    0.00     172    76.2
 166   18:10   78.0    20    2.1   263      8.3  99999.0    0.00     111    76.2
 166   18:20   77.0    20    2.1   256      7.2  99999.0    0.00      98    76.1
 166   18:30   76.4    19    2.3   256      8.6  99999.0    0.00      67    76.0
 166   18:40   76.0    18    2.2   257      8.3  99999.0    0.00      57    76.0
 166   18:50   74.9    19    2.6   251      7.9  99999.0    0.00      42    75.9
 166   19:00   74.1    20    0.8   259      6.1  99999.0    0.00      31    75.8
 166   19:10   73.9    19    1.2   339      3.4  99999.0    0.00      22    75.7
 166   19:20   74.5    18    1.3   146      4.0  99999.0    0.00      12    75.6
 166   19:30   73.7    18    3.4   187      5.3  99999.0    0.00       4    75.5
 166   19:40   73.1    18    4.7   207      6.6  99999.0    0.00       2    75.4
 166   19:50   72.3    18    4.6   215      6.5  99999.0    0.00       1    75.3
 166   20:00   72.0    18    5.7   231      7.9  99999.0    0.00       0    75.2
 166   20:10   70.4    20    5.9   237      7.8  99999.0    0.00       0    75.1
 166   20:20   66.6    27    4.8   241      8.2  99999.0    0.00       0    75.0
 166   20:30   67.0    25    4.5   240      7.6  99999.0    0.00       1    74.8
 166   20:40   65.4    28    1.4   248      5.5  99999.0    0.00       2    74.7
 166   20:50   65.2    30    0.1   317      2.0  99999.0    0.00       1    74.6
 166   21:00   64.3    28    0.4   240      1.8  99999.0    0.00       0    74.4
 166   21:10   63.4    29    1.8   223      2.8  99999.0    0.00       0    74.3
 166   21:20   63.0    29    2.0   225      2.8  99999.0    0.00       0    74.1
 166   21:30   63.0    29    3.5   226      6.4  99999.0    0.00       0    74.0
 166   21:40   64.7    29    3.3   225      5.8  99999.0    0.00       0    73.8
 166   21:50   65.0    29    2.9   228      5.6  99999.0    0.00       0    73.7
 166   22:00   64.1    32    1.2   236      5.2  99999.0    0.00       0    73.5
 166   22:10   64.5    30    3.3   232      6.6  99999.0    0.00       0    73.4
 166   22:20   65.4    28    4.0   236      7.6  99999.0    0.00       0    73.3
 166   22:30   64.1    30    1.6   235      5.5  99999.0    0.00       0    73.1
 166   22:40   64.2    28    4.6   234      7.1  99999.0    0.00       0    73.0
 166   22:50   63.7    29    3.5   240      7.0  99999.0    0.00       0    72.8
 166   23:00   64.1    26    5.0   242      8.3  99999.0    0.00       0    72.7
 166   23:10   64.4    25    6.3   239      8.7  99999.0    0.00       0    72.6
 166   23:20   64.3    25    6.7   236      8.3  99999.0    0.00       0    72.5
 166   23:30   64.1    25    5.9   237      8.0  99999.0    0.00       0    72.3
 166   23:40   62.7    30    0.5   325      2.9  99999.0    0.00       0    72.2
 166   23:50   62.3    30    0.3   132      2.7  99999.0    0.00       0    72.1
 167    0:00   61.4    37    2.3   232      5.5  99999.0    0.00       0    72.0
 167    0:10   59.0    45    2.5   235      6.5  99999.0    0.00       1    71.9
 167    0:20   58.0    47    2.0   230      7.5  99999.0    0.02       1    71.7
 167    0:30   55.5    53    2.2   234      5.3  99999.0    0.01       2    71.6
 167    0:40   54.6    53    1.9   236      5.8  99999.0    0.00       2    71.5
 167    0:50   55.4    48    1.9   241      4.5  99999.0    0.00       1    71.4
 167    1:00   56.3    44    2.7   234      5.0  99999.0    0.00       0    71.2
 167    1:10   56.9    43    2.3   237      5.8  99999.0    0.00       0    71.1
 167    1:20   58.7    37    3.4   236      6.5  99999.0    0.00       0    71.0
 167    1:30   57.7    42    0.9   244      2.6  99999.0    0.00       0    70.9
 167    1:40   57.2    43    0.2   242      1.8  99999.0    0.00       0    70.8
 167    1:50   58.0    39    2.3   235      4.2  99999.0    0.00       0    70.7
 167    2:00   57.5    42    1.2   236      3.2  99999.0    0.00       0    70.6
 167    2:10   57.9    39    2.2   233      3.9  99999.0    0.00       0    70.5
 167    2:20   57.9    42    1.7   237      5.3  99999.0    0.00       0    70.4

Return to South Reno, Nevada graphs page.


Western Regional Climate Center,wrcc@dri.edu